Forseti — V2PV4 — position and weather

sailwx.info

Track history (hours):
 
Tides and Currents Weather Stations Pressure Air Temp Water Temp Dewpoint Dewpoint Depression Visibility Wind Speed Wind Dir Waves Ship Positions

Forseti

Last reported at 2016-Apr-28 09:17 UTC. Time now 2016-May-02 12:30 UTC.
Position N 55°40' E 015°32'.

Length 85 m; draft 3.8 m.

Type: Cargo ship. MMSI: 304010297.

Date/timePositionNaut miles runAvg speedWind from/ knotsBaromVisibWave heightAir tempDewpointWater temp
2016-Apr-28 09:17N 55°40' E 015°32'810.0
2016-Apr-28 08:31N 55°36' E 015°20'10 9.9
2016-Apr-28 07:33N 55°31' E 015°05'10 9.9
2016-Apr-28 06:33N 55°27' E 014°50'10 9.8
2016-Apr-28 05:33N 55°21' E 014°36'10 9.9
2016-Apr-28 04:34N 55°13' E 014°25'9 9.4
2016-Apr-28 03:33N 55°06' E 014°15'10 9.6
2016-Apr-28 02:33N 54°59' E 014°03'10 9.7
2016-Apr-28 01:30N 54°55' E 013°46'39 9.9
2016-Apr-27 21:33N 54°40' E 012°44'20 9.6
2016-Apr-27 19:30N 54°29' E 012°16'8 8.5
2016-Apr-27 18:32N 54°24' E 012°05'9 9.4
2016-Apr-27 17:33N 54°24' E 011°49'9 9.3
2016-Apr-27 16:34N 54°27' E 011°34'10 9.5
2016-Apr-27 15:33N 54°32' E 011°20'10 9.7
2016-Apr-27 14:33N 54°35' E 011°04'1010.1
2016-Apr-27 13:33N 54°33' E 010°46'1010.0
2016-Apr-27 12:33N 54°32' E 010°29'9 9.5
2016-Apr-27 11:34N 54°27' E 010°15'6 6.4
2016-Apr-27 10:33N 54°22' E 010°08'4 4.3
2016-Apr-27 09:33N 54°22' E 010°01'5 5.4
2016-Apr-27 08:33N 54°22' E 009°52'8 7.5
2016-Apr-27 07:33N 54°18' E 009°41'3 3.2
2016-Apr-27 06:33N 54°15' E 009°37'8 7.2
2016-Apr-27 05:22N 54°10' E 009°26'6 7.4
2016-Apr-27 04:33N 54°05' E 009°19'4 4.2
2016-Apr-27 03:33N 54°01' E 009°18'7 6.7
2016-Apr-27 02:33N 53°55' E 009°12'3 2.8
2016-Apr-27 01:33N 53°53' E 009°08'2 1.8
2016-Apr-27 00:33N 53°53' E 009°11'9 9.5
2016-Apr-26 23:33N 53°47' E 009°24'1212.1
2016-Apr-26 22:33N 53°37' E 009°35'1212.2
2016-Apr-26 21:34N 53°33' E 009°54'3 3.3
2016-Apr-26 20:31N 53°30' E 009°58'0 0.0
2016-Apr-26 19:31N 53°30' E 009°58'0 0.0
2016-Apr-26 18:31N 53°30' E 009°58'0 0.0
2016-Apr-26 17:31N 53°30' E 009°58'0 0.0
2016-Apr-26 16:31N 53°30' E 009°58'0 0.0
2016-Apr-26 15:31N 53°30' E 009°58'0 0.0
2016-Apr-26 14:31N 53°30' E 009°58'0 0.0
2016-Apr-26 13:28N 53°30' E 009°58'0 0.0
2016-Apr-26 12:31N 53°30' E 009°58'0 0.0
2016-Apr-26 11:31N 53°30' E 009°58'0 0.0
2016-Apr-26 10:28N 53°30' E 009°58'0 0.0
2016-Apr-26 09:31N 53°30' E 009°58'0 0.0
2016-Apr-26 08:31N 53°30' E 009°58'0 0.0
2016-Apr-26 07:31N 53°30' E 009°58'0 0.0
2016-Apr-26 06:31N 53°30' E 009°58'0 0.0
2016-Apr-26 05:31N 53°30' E 009°58'0 0.0
2016-Apr-26 04:33N 53°30' E 009°58'4 4.5
2016-Apr-26 03:33N 53°33' E 009°52'10 9.6
2016-Apr-26 02:33N 53°35' E 009°36'3 2.8
2016-Apr-26 01:32N 53°37' E 009°32'0 0.0
2016-Apr-26 00:32N 53°37' E 009°32'0 0.2
2016-Apr-25 23:31N 53°37' E 009°32'0 0.0
2016-Apr-25 22:31N 53°37' E 009°32'0 0.0
2016-Apr-25 21:32N 53°37' E 009°32'0 0.0
2016-Apr-25 20:31N 53°37' E 009°32'0 0.0
2016-Apr-25 19:32N 53°37' E 009°32'0 0.0
2016-Apr-25 18:28N 53°37' E 009°32'0 0.1
2016-Apr-25 17:32N 53°37' E 009°32'0 0.1
2016-Apr-25 16:31N 53°37' E 009°32'0 0.0
2016-Apr-25 15:32N 53°37' E 009°32'0 0.0
2016-Apr-25 14:31N 53°37' E 009°32'0 0.0
2016-Apr-25 13:32N 53°37' E 009°32'0 0.0
2016-Apr-25 12:31N 53°37' E 009°32'0 0.2
2016-Apr-25 11:31N 53°37' E 009°32'0 0.0
2016-Apr-25 10:31N 53°37' E 009°32'0 0.0
2016-Apr-25 09:31N 53°37' E 009°32'0 0.0
2016-Apr-25 08:31N 53°37' E 009°32'0 0.0
2016-Apr-25 07:31N 53°37' E 009°32'0 0.0
2016-Apr-25 06:31N 53°37' E 009°32'0 0.1
2016-Apr-25 05:31N 53°37' E 009°32'0 0.1
2016-Apr-25 04:31N 53°37' E 009°32'0 0.0
2016-Apr-25 03:31N 53°37' E 009°32'0 0.0
2016-Apr-25 02:31N 53°37' E 009°32'0 0.0
2016-Apr-25 01:31N 53°37' E 009°32'0 0.1
2016-Apr-25 00:28N 53°37' E 009°33'0 0.1
2016-Apr-24 23:31N 53°37' E 009°32'0 0.1
2016-Apr-24 22:31N 53°37' E 009°32'0 0.0
2016-Apr-24 21:31N 53°37' E 009°32'0 0.0
2016-Apr-24 20:31N 53°37' E 009°32'0 0.0
2016-Apr-24 19:31N 53°37' E 009°32'0 0.0
2016-Apr-24 18:31N 53°37' E 009°32'0 0.1
2016-Apr-24 17:31N 53°37' E 009°32'0 0.1
2016-Apr-24 16:31N 53°37' E 009°33'0 0.0
2016-Apr-24 15:28N 53°37' E 009°33'0 0.0
2016-Apr-24 14:31N 53°37' E 009°33'0 0.0
2016-Apr-24 13:31N 53°37' E 009°33'0 0.1
2016-Apr-24 12:33N 53°37' E 009°33'4 4.2
2016-Apr-24 11:33N 53°41' E 009°30'1010.0
2016-Apr-24 10:34N 53°50' E 009°21'8 8.3
2016-Apr-24 09:34N 53°53' E 009°08'7 7.2
2016-Apr-24 08:33N 53°51' E 008°56'7 6.7
2016-Apr-24 07:33N 53°51' E 008°45'6 6.1
2016-Apr-24 06:33N 53°56' E 008°39'15 7.3
2016-Apr-24 04:33N 53°59' E 008°15'8 7.9
2016-Apr-24 03:34N 53°60' E 008°02'9 9.2
2016-Apr-24 02:33N 54°05' E 007°48'9 8.9
2016-Apr-24 01:33N 54°09' E 007°35'9 9.0
2016-Apr-24 00:33N 54°09' E 007°20'10 9.8
2016-Apr-23 23:34N 54°09' E 007°03'1010.2
2016-Apr-23 22:33N 54°09' E 006°45'3110.3
2016-Apr-23 19:33N 54°06' E 005°53'10 9.8
2016-Apr-23 18:33N 54°05' E 005°36'9 9.4
2016-Apr-23 17:33N 54°03' E 005°20'9 8.7
2016-Apr-23 16:33N 54°02' E 005°06'8 8.1
2016-Apr-23 15:32N 54°01' E 004°52'134 8.7
2016-Apr-23 00:03N 53°36' E 001°08'5 9.0
2016-Apr-22 23:32N 53°35' E 001°01'10 9.9
2016-Apr-22 22:33N 53°28' E 000°49'1110.3
2016-Apr-22 21:31N 53°18' E 000°42'1010.6
2016-Apr-22 20:33N 53°09' E 000°36'1010.4
2016-Apr-22 19:34N 53°00' E 000°26'9 9.2
2016-Apr-22 18:33N 52°51' E 000°21'6 5.7
2016-Apr-22 17:33N 52°46' E 000°23'0 0.0
2016-Apr-22 16:33N 52°46' E 000°23'0 0.0
2016-Apr-22 15:33N 52°46' E 000°23'0 0.0
2016-Apr-22 14:33N 52°46' E 000°23'0 0.0
2016-Apr-22 13:33N 52°46' E 000°23'0 0.0
2016-Apr-22 12:33N 52°46' E 000°23'0 0.0
2016-Apr-22 11:33N 52°46' E 000°23'0 0.0
2016-Apr-22 10:33N 52°46' E 000°23'0 0.0
2016-Apr-22 09:33N 52°46' E 000°23'0 0.0
2016-Apr-22 08:24N 52°46' E 000°23'0 0.0
2016-Apr-22 07:30N 52°46' E 000°23'0 0.0
2016-Apr-22 06:30N 52°46' E 000°23'0 0.0
2016-Apr-22 05:33N 52°46' E 000°23'0 0.0
2016-Apr-22 04:30N 52°46' E 000°23'0 0.0
2016-Apr-22 03:33N 52°46' E 000°23'0 0.0
2016-Apr-22 02:33N 52°46' E 000°23'0 0.0
2016-Apr-22 01:33N 52°46' E 000°23'0 0.0
2016-Apr-22 00:30N 52°46' E 000°23'0 0.0
2016-Apr-21 23:33N 52°46' E 000°23'0 0.0
2016-Apr-21 22:33N 52°46' E 000°23'0 0.0
2016-Apr-21 21:30N 52°46' E 000°23'0 0.0
2016-Apr-21 20:30N 52°46' E 000°23'0 0.0
2016-Apr-21 19:29N 52°46' E 000°23'0 0.0
2016-Apr-21 18:33N 52°46' E 000°23'0 0.0
2016-Apr-21 17:32N 52°46' E 000°23'0 0.0
2016-Apr-21 16:29N 52°46' E 000°23'0 0.0
2016-Apr-21 15:32N 52°46' E 000°23'0 0.0
2016-Apr-21 14:29N 52°46' E 000°23'0 0.0
2016-Apr-21 13:32N 52°46' E 000°23'0 0.0
2016-Apr-21 12:32N 52°46' E 000°23'0 0.0
2016-Apr-21 11:29N 52°46' E 000°23'0 0.0
2016-Apr-21 10:23N 52°46' E 000°23'0 0.0
2016-Apr-21 09:32N 52°46' E 000°23'0 0.0
2016-Apr-21 08:32N 52°46' E 000°23'0 0.0
2016-Apr-21 07:29N 52°46' E 000°23'0 0.0
2016-Apr-21 06:26N 52°46' E 000°23'0 0.0
2016-Apr-21 05:32N 52°46' E 000°23'0 0.0
2016-Apr-21 04:32N 52°46' E 000°23'0 0.0
2016-Apr-21 03:32N 52°46' E 000°23'0 0.0
2016-Apr-21 02:32N 52°46' E 000°23'0 0.0
2016-Apr-21 01:32N 52°46' E 000°23'0 0.0
2016-Apr-21 00:32N 52°46' E 000°23'0 0.0
2016-Apr-20 23:29N 52°46' E 000°23'0 0.0
2016-Apr-20 22:32N 52°46' E 000°23'0 0.0
2016-Apr-20 21:29N 52°46' E 000°23'0 0.0
2016-Apr-20 20:29N 52°46' E 000°23'0 0.0
2016-Apr-20 19:32N 52°46' E 000°23'0 0.0
2016-Apr-20 18:26N 52°46' E 000°23'0 0.0
2016-Apr-20 17:26N 52°46' E 000°23'2 1.8
2016-Apr-20 16:33N 52°47' E 000°22'9 9.5
2016-Apr-20 15:33N 52°57' E 000°22'0 0.1
2016-Apr-20 14:33N 52°57' E 000°22'0 0.0
2016-Apr-20 13:33N 52°57' E 000°22'5 5.0
2016-Apr-20 12:33N 53°01' E 000°25'1010.2
2016-Apr-20 11:33N 53°10' E 000°35'7 7.4
2016-Apr-20 10:33N 53°14' E 000°45'1211.4
2016-Apr-20 09:32N 53°06' E 000°59'10 9.8
2016-Apr-20 08:33N 53°01' E 001°13'9 8.7
2016-Apr-20 07:33N 52°57' E 001°26'8 7.7
2016-Apr-20 06:33N 52°52' E 001°35'8 7.6
2016-Apr-20 05:33N 52°46' E 001°44'8 8.5
2016-Apr-20 04:33N 52°39' E 001°51'1010.3
2016-Apr-20 03:33N 52°29' E 001°53'1211.8
2016-Apr-20 02:33N 52°17' E 001°51'1212.2
2016-Apr-20 01:33N 52°05' E 001°50'1212.3
2016-Apr-20 00:33N 51°53' E 001°48'9 8.9
2016-Apr-19 23:33N 51°49' E 001°34'1010.5
2016-Apr-19 22:33N 51°44' E 001°19'9 9.2
2016-Apr-19 21:33N 51°40' E 001°06'8 8.2
2016-Apr-19 20:33N 51°37' E 000°53'4 3.6
2016-Apr-19 19:32N 51°37' E 000°48'0 0.0
2016-Apr-19 18:32N 51°37' E 000°48'0 0.0
2016-Apr-19 17:32N 51°37' E 000°48'0 0.0
2016-Apr-19 16:32N 51°37' E 000°48'0 0.0
2016-Apr-19 15:32N 51°37' E 000°48'0 0.0
2016-Apr-19 14:32N 51°37' E 000°48'0 0.0
2016-Apr-19 13:32N 51°37' E 000°48'0 0.0
2016-Apr-19 12:32N 51°37' E 000°48'0 0.0
2016-Apr-19 11:32N 51°37' E 000°48'0 0.0
2016-Apr-19 10:32N 51°37' E 000°48'0 0.0
2016-Apr-19 09:32N 51°37' E 000°48'0 0.0
2016-Apr-19 08:32N 51°37' E 000°48'0 0.0
2016-Apr-19 07:32N 51°37' E 000°48'0 0.0
2016-Apr-19 06:32N 51°37' E 000°48'0 0.0
2016-Apr-19 05:32N 51°37' E 000°48'0 0.0
2016-Apr-19 04:32N 51°37' E 000°48'0 0.0
2016-Apr-19 03:32N 51°37' E 000°48'0 0.0
2016-Apr-19 02:32N 51°37' E 000°48'0 0.0
2016-Apr-19 01:32N 51°37' E 000°48'0 0.0
2016-Apr-19 00:31N 51°37' E 000°48'0 0.0
2016-Apr-18 23:31N 51°37' E 000°48'0 0.0
2016-Apr-18 22:31N 51°37' E 000°48'0 0.0
2016-Apr-18 21:31N 51°37' E 000°48'0 0.0
2016-Apr-18 20:31N 51°37' E 000°48'0 0.0
2016-Apr-18 19:31N 51°37' E 000°48'0 0.0
2016-Apr-18 18:31N 51°37' E 000°48'0 0.0
2016-Apr-18 17:31N 51°37' E 000°48'0 0.0
2016-Apr-18 16:31N 51°37' E 000°48'0 0.0
2016-Apr-18 15:31N 51°37' E 000°48'0 0.0
2016-Apr-18 14:31N 51°37' E 000°48'0 0.0
2016-Apr-18 13:31N 51°37' E 000°48'0 0.0
2016-Apr-18 12:31N 51°37' E 000°48'0 0.0
2016-Apr-18 11:31N 51°37' E 000°48'0 0.0
2016-Apr-18 10:31N 51°37' E 000°48'0 0.0
2016-Apr-18 09:31N 51°37' E 000°48'  
Track history (hours):
 
Tides and Currents Weather Stations Pressure Air Temp Water Temp Dewpoint Dewpoint Depression Visibility Wind Speed Wind Dir Waves Ship Positions

Forseti

Last reported at 2016-Apr-28 09:17 UTC. Time now 2016-May-02 12:30 UTC.
Position N 55°40' E 015°32'.

Length 85 m; draft 3.8 m.

Type: Cargo ship. MMSI: 304010297.

Date/timePositionNaut miles runAvg speedWind from/ knotsBaromVisibWave heightAir tempDewpointWater temp
2016-Apr-28 09:17N 55°40' E 015°32'810.0
2016-Apr-28 08:31N 55°36' E 015°20'10 9.9
2016-Apr-28 07:33N 55°31' E 015°05'10 9.9
2016-Apr-28 06:33N 55°27' E 014°50'10 9.8
2016-Apr-28 05:33N 55°21' E 014°36'10 9.9
2016-Apr-28 04:34N 55°13' E 014°25'9 9.4
2016-Apr-28 03:33N 55°06' E 014°15'10 9.6
2016-Apr-28 02:33N 54°59' E 014°03'10 9.7
2016-Apr-28 01:30N 54°55' E 013°46'39 9.9
2016-Apr-27 21:33N 54°40' E 012°44'20 9.6
2016-Apr-27 19:30N 54°29' E 012°16'8 8.5
2016-Apr-27 18:32N 54°24' E 012°05'9 9.4
2016-Apr-27 17:33N 54°24' E 011°49'9 9.3
2016-Apr-27 16:34N 54°27' E 011°34'10 9.5
2016-Apr-27 15:33N 54°32' E 011°20'10 9.7
2016-Apr-27 14:33N 54°35' E 011°04'1010.1
2016-Apr-27 13:33N 54°33' E 010°46'1010.0
2016-Apr-27 12:33N 54°32' E 010°29'9 9.5
2016-Apr-27 11:34N 54°27' E 010°15'6 6.4
2016-Apr-27 10:33N 54°22' E 010°08'4 4.3
2016-Apr-27 09:33N 54°22' E 010°01'5 5.4
2016-Apr-27 08:33N 54°22' E 009°52'8 7.5
2016-Apr-27 07:33N 54°18' E 009°41'3 3.2
2016-Apr-27 06:33N 54°15' E 009°37'8 7.2
2016-Apr-27 05:22N 54°10' E 009°26'6 7.4
2016-Apr-27 04:33N 54°05' E 009°19'4 4.2
2016-Apr-27 03:33N 54°01' E 009°18'7 6.7
2016-Apr-27 02:33N 53°55' E 009°12'3 2.8
2016-Apr-27 01:33N 53°53' E 009°08'2 1.8
2016-Apr-27 00:33N 53°53' E 009°11'9 9.5
2016-Apr-26 23:33N 53°47' E 009°24'1212.1
2016-Apr-26 22:33N 53°37' E 009°35'1212.2
2016-Apr-26 21:34N 53°33' E 009°54'3 3.3
2016-Apr-26 20:31N 53°30' E 009°58'0 0.0
2016-Apr-26 19:31N 53°30' E 009°58'0 0.0
2016-Apr-26 18:31N 53°30' E 009°58'0 0.0
2016-Apr-26 17:31N 53°30' E 009°58'0 0.0
2016-Apr-26 16:31N 53°30' E 009°58'0 0.0
2016-Apr-26 15:31N 53°30' E 009°58'0 0.0
2016-Apr-26 14:31N 53°30' E 009°58'0 0.0
2016-Apr-26 13:28N 53°30' E 009°58'0 0.0
2016-Apr-26 12:31N 53°30' E 009°58'0 0.0
2016-Apr-26 11:31N 53°30' E 009°58'0 0.0
2016-Apr-26 10:28N 53°30' E 009°58'0 0.0
2016-Apr-26 09:31N 53°30' E 009°58'0 0.0
2016-Apr-26 08:31N 53°30' E 009°58'0 0.0
2016-Apr-26 07:31N 53°30' E 009°58'0 0.0
2016-Apr-26 06:31N 53°30' E 009°58'0 0.0
2016-Apr-26 05:31N 53°30' E 009°58'0 0.0
2016-Apr-26 04:33N 53°30' E 009°58'4 4.5
2016-Apr-26 03:33N 53°33' E 009°52'10 9.6
2016-Apr-26 02:33N 53°35' E 009°36'3 2.8
2016-Apr-26 01:32N 53°37' E 009°32'0 0.0
2016-Apr-26 00:32N 53°37' E 009°32'0 0.2
2016-Apr-25 23:31N 53°37' E 009°32'0 0.0
2016-Apr-25 22:31N 53°37' E 009°32'0 0.0
2016-Apr-25 21:32N 53°37' E 009°32'0 0.0
2016-Apr-25 20:31N 53°37' E 009°32'0 0.0
2016-Apr-25 19:32N 53°37' E 009°32'0 0.0
2016-Apr-25 18:28N 53°37' E 009°32'0 0.1
2016-Apr-25 17:32N 53°37' E 009°32'0 0.1
2016-Apr-25 16:31N 53°37' E 009°32'0 0.0
2016-Apr-25 15:32N 53°37' E 009°32'0 0.0
2016-Apr-25 14:31N 53°37' E 009°32'0 0.0
2016-Apr-25 13:32N 53°37' E 009°32'0 0.0
2016-Apr-25 12:31N 53°37' E 009°32'0 0.2
2016-Apr-25 11:31N 53°37' E 009°32'0 0.0
2016-Apr-25 10:31N 53°37' E 009°32'0 0.0
2016-Apr-25 09:31N 53°37' E 009°32'0 0.0
2016-Apr-25 08:31N 53°37' E 009°32'0 0.0
2016-Apr-25 07:31N 53°37' E 009°32'0 0.0
2016-Apr-25 06:31N 53°37' E 009°32'0 0.1
2016-Apr-25 05:31N 53°37' E 009°32'0 0.1
2016-Apr-25 04:31N 53°37' E 009°32'0 0.0
2016-Apr-25 03:31N 53°37' E 009°32'0 0.0
2016-Apr-25 02:31N 53°37' E 009°32'0 0.0
2016-Apr-25 01:31N 53°37' E 009°32'0 0.1
2016-Apr-25 00:28N 53°37' E 009°33'0 0.1
2016-Apr-24 23:31N 53°37' E 009°32'0 0.1
2016-Apr-24 22:31N 53°37' E 009°32'0 0.0
2016-Apr-24 21:31N 53°37' E 009°32'0 0.0
2016-Apr-24 20:31N 53°37' E 009°32'0 0.0
2016-Apr-24 19:31N 53°37' E 009°32'0 0.0
2016-Apr-24 18:31N 53°37' E 009°32'0 0.1
2016-Apr-24 17:31N 53°37' E 009°32'0 0.1
2016-Apr-24 16:31N 53°37' E 009°33'0 0.0
2016-Apr-24 15:28N 53°37' E 009°33'0 0.0
2016-Apr-24 14:31N 53°37' E 009°33'0 0.0
2016-Apr-24 13:31N 53°37' E 009°33'0 0.1
2016-Apr-24 12:33N 53°37' E 009°33'4 4.2
2016-Apr-24 11:33N 53°41' E 009°30'1010.0
2016-Apr-24 10:34N 53°50' E 009°21'8 8.3
2016-Apr-24 09:34N 53°53' E 009°08'7 7.2
2016-Apr-24 08:33N 53°51' E 008°56'7 6.7
2016-Apr-24 07:33N 53°51' E 008°45'6 6.1
2016-Apr-24 06:33N 53°56' E 008°39'15 7.3
2016-Apr-24 04:33N 53°59' E 008°15'8 7.9
2016-Apr-24 03:34N 53°60' E 008°02'9 9.2
2016-Apr-24 02:33N 54°05' E 007°48'9 8.9
2016-Apr-24 01:33N 54°09' E 007°35'9 9.0
2016-Apr-24 00:33N 54°09' E 007°20'10 9.8
2016-Apr-23 23:34N 54°09' E 007°03'1010.2
2016-Apr-23 22:33N 54°09' E 006°45'3110.3
2016-Apr-23 19:33N 54°06' E 005°53'10 9.8
2016-Apr-23 18:33N 54°05' E 005°36'9 9.4
2016-Apr-23 17:33N 54°03' E 005°20'9 8.7
2016-Apr-23 16:33N 54°02' E 005°06'8 8.1
2016-Apr-23 15:32N 54°01' E 004°52'134 8.7
2016-Apr-23 00:03N 53°36' E 001°08'5 9.0
2016-Apr-22 23:32N 53°35' E 001°01'10 9.9
2016-Apr-22 22:33N 53°28' E 000°49'1110.3
2016-Apr-22 21:31N 53°18' E 000°42'1010.6
2016-Apr-22 20:33N 53°09' E 000°36'1010.4
2016-Apr-22 19:34N 53°00' E 000°26'9 9.2
2016-Apr-22 18:33N 52°51' E 000°21'6 5.7
2016-Apr-22 17:33N 52°46' E 000°23'0 0.0
2016-Apr-22 16:33N 52°46' E 000°23'0 0.0
2016-Apr-22 15:33N 52°46' E 000°23'0 0.0
2016-Apr-22 14:33N 52°46' E 000°23'0 0.0
2016-Apr-22 13:33N 52°46' E 000°23'0 0.0
2016-Apr-22 12:33N 52°46' E 000°23'0 0.0
2016-Apr-22 11:33N 52°46' E 000°23'0 0.0
2016-Apr-22 10:33N 52°46' E 000°23'0 0.0
2016-Apr-22 09:33N 52°46' E 000°23'0 0.0
2016-Apr-22 08:24N 52°46' E 000°23'0 0.0
2016-Apr-22 07:30N 52°46' E 000°23'0 0.0
2016-Apr-22 06:30N 52°46' E 000°23'0 0.0
2016-Apr-22 05:33N 52°46' E 000°23'0 0.0
2016-Apr-22 04:30N 52°46' E 000°23'0 0.0
2016-Apr-22 03:33N 52°46' E 000°23'0 0.0
2016-Apr-22 02:33N 52°46' E 000°23'0 0.0
2016-Apr-22 01:33N 52°46' E 000°23'0 0.0
2016-Apr-22 00:30N 52°46' E 000°23'0 0.0
2016-Apr-21 23:33N 52°46' E 000°23'0 0.0
2016-Apr-21 22:33N 52°46' E 000°23'0 0.0
2016-Apr-21 21:30N 52°46' E 000°23'0 0.0
2016-Apr-21 20:30N 52°46' E 000°23'0 0.0
2016-Apr-21 19:29N 52°46' E 000°23'0 0.0
2016-Apr-21 18:33N 52°46' E 000°23'0 0.0
2016-Apr-21 17:32N 52°46' E 000°23'0 0.0
2016-Apr-21 16:29N 52°46' E 000°23'0 0.0
2016-Apr-21 15:32N 52°46' E 000°23'0 0.0
2016-Apr-21 14:29N 52°46' E 000°23'0 0.0
2016-Apr-21 13:32N 52°46' E 000°23'0 0.0
2016-Apr-21 12:32N 52°46' E 000°23'0 0.0
2016-Apr-21 11:29N 52°46' E 000°23'0 0.0
2016-Apr-21 10:23N 52°46' E 000°23'0 0.0
2016-Apr-21 09:32N 52°46' E 000°23'0 0.0
2016-Apr-21 08:32N 52°46' E 000°23'0 0.0
2016-Apr-21 07:29N 52°46' E 000°23'0 0.0
2016-Apr-21 06:26N 52°46' E 000°23'0 0.0
2016-Apr-21 05:32N 52°46' E 000°23'0 0.0
2016-Apr-21 04:32N 52°46' E 000°23'0 0.0
2016-Apr-21 03:32N 52°46' E 000°23'0 0.0
2016-Apr-21 02:32N 52°46' E 000°23'0 0.0
2016-Apr-21 01:32N 52°46' E 000°23'0 0.0
2016-Apr-21 00:32N 52°46' E 000°23'0 0.0
2016-Apr-20 23:29N 52°46' E 000°23'0 0.0
2016-Apr-20 22:32N 52°46' E 000°23'0 0.0
2016-Apr-20 21:29N 52°46' E 000°23'0 0.0
2016-Apr-20 20:29N 52°46' E 000°23'0 0.0
2016-Apr-20 19:32N 52°46' E 000°23'0 0.0
2016-Apr-20 18:26N 52°46' E 000°23'0 0.0
2016-Apr-20 17:26N 52°46' E 000°23'2 1.8
2016-Apr-20 16:33N 52°47' E 000°22'9 9.5
2016-Apr-20 15:33N 52°57' E 000°22'0 0.1
2016-Apr-20 14:33N 52°57' E 000°22'0 0.0
2016-Apr-20 13:33N 52°57' E 000°22'5 5.0
2016-Apr-20 12:33N 53°01' E 000°25'1010.2
2016-Apr-20 11:33N 53°10' E 000°35'7 7.4
2016-Apr-20 10:33N 53°14' E 000°45'1211.4
2016-Apr-20 09:32N 53°06' E 000°59'10 9.8
2016-Apr-20 08:33N 53°01' E 001°13'9 8.7
2016-Apr-20 07:33N 52°57' E 001°26'8 7.7
2016-Apr-20 06:33N 52°52' E 001°35'8 7.6
2016-Apr-20 05:33N 52°46' E 001°44'8 8.5
2016-Apr-20 04:33N 52°39' E 001°51'1010.3
2016-Apr-20 03:33N 52°29' E 001°53'1211.8
2016-Apr-20 02:33N 52°17' E 001°51'1212.2
2016-Apr-20 01:33N 52°05' E 001°50'1212.3
2016-Apr-20 00:33N 51°53' E 001°48'9 8.9
2016-Apr-19 23:33N 51°49' E 001°34'1010.5
2016-Apr-19 22:33N 51°44' E 001°19'9 9.2
2016-Apr-19 21:33N 51°40' E 001°06'8 8.2
2016-Apr-19 20:33N 51°37' E 000°53'4 3.6
2016-Apr-19 19:32N 51°37' E 000°48'0 0.0
2016-Apr-19 18:32N 51°37' E 000°48'0 0.0
2016-Apr-19 17:32N 51°37' E 000°48'0 0.0
2016-Apr-19 16:32N 51°37' E 000°48'0 0.0
2016-Apr-19 15:32N 51°37' E 000°48'0 0.0
2016-Apr-19 14:32N 51°37' E 000°48'0 0.0
2016-Apr-19 13:32N 51°37' E 000°48'0 0.0
2016-Apr-19 12:32N 51°37' E 000°48'0 0.0
2016-Apr-19 11:32N 51°37' E 000°48'0 0.0
2016-Apr-19 10:32N 51°37' E 000°48'0 0.0
2016-Apr-19 09:32N 51°37' E 000°48'0 0.0
2016-Apr-19 08:32N 51°37' E 000°48'0 0.0
2016-Apr-19 07:32N 51°37' E 000°48'0 0.0
2016-Apr-19 06:32N 51°37' E 000°48'0 0.0
2016-Apr-19 05:32N 51°37' E 000°48'0 0.0
2016-Apr-19 04:32N 51°37' E 000°48'0 0.0
2016-Apr-19 03:32N 51°37' E 000°48'0 0.0
2016-Apr-19 02:32N 51°37' E 000°48'0 0.0
2016-Apr-19 01:32N 51°37' E 000°48'0 0.0
2016-Apr-19 00:31N 51°37' E 000°48'0 0.0
2016-Apr-18 23:31N 51°37' E 000°48'0 0.0
2016-Apr-18 22:31N 51°37' E 000°48'0 0.0
2016-Apr-18 21:31N 51°37' E 000°48'0 0.0
2016-Apr-18 20:31N 51°37' E 000°48'0 0.0
2016-Apr-18 19:31N 51°37' E 000°48'0 0.0
2016-Apr-18 18:31N 51°37' E 000°48'0 0.0
2016-Apr-18 17:31N 51°37' E 000°48'0 0.0
2016-Apr-18 16:31N 51°37' E 000°48'0 0.0
2016-Apr-18 15:31N 51°37' E 000°48'0 0.0
2016-Apr-18 14:31N 51°37' E 000°48'0 0.0
2016-Apr-18 13:31N 51°37' E 000°48'0 0.0
2016-Apr-18 12:31N 51°37' E 000°48'0 0.0
2016-Apr-18 11:31N 51°37' E 000°48'0 0.0
2016-Apr-18 10:31N 51°37' E 000°48'0 0.0
2016-Apr-18 09:31N 51°37' E 000°48'  

Dump ship's entire track history